Frazier Park, CA (93225)

2:42 AM PDT on April 25, 2017 (GMT -0700)
Pinion Pines | | Change Station
Active Advisory: Wind Advisory Active Notice: Public Information Statement

Elev 5515 ft 34.83 °N, 119.04 °W | Updated 11 seconds ago

Overcast
Overcast
38.8 °F
Feels Like 32 °F
N
11.4
Wind Variable Wind from NNE
Gusts 15.0 mph

Today
High -- | Low -- °F
--% Chance of Precip.
Yesterday
High -- | Low -- °F
Precip. -- in
Pressure 29.95 in
Visibility 0.2 miles
Clouds
Windchill 32 °F
Dew Point 39 °F
Humidity 99%
Rainfall 0.00 in
Snow Depth Not available.
6:11 AM 7:36 PM
Waning Crescent, 2% visible
SPECI KSDB 250911Z AUTO 35020G29KT 1/4SM FG VV001 07/06 A2995 RMK AO2 PK WND 35029/0911 T00720056 $
Pressure 29.95 in
Visibility 0.2 miles
Clouds
Windchill 32 °F
Dew Point 39 °F
Humidity 99%
Rainfall 0.00 in
Snow Depth Not available.
6:11 AM 7:36 PM
Waning Crescent, 2% visible
SPECI KSDB 250911Z AUTO 35020G29KT 1/4SM FG VV001 07/06 A2995 RMK AO2 PK WND 35029/0911 T00720056 $

Get Your Daily Forecast Email!

Thanks for signing up!

Be on the lookout for a verification email in your inbox.

You'll start receiving severe weather alerts in your inbox..

×

10-Day Weather Forecast

Almanac

Astronomy

Apr. 25, 2017 Rise Set
Actual Time
Civil Twilight
Nautical Twilight
Astronomical Twilight
Moon
Length of Visible Light
Length of Day
Tomorrow will be .
, % of the Moon is Illuminated

Today's Extremes

State Highs State Lows

Community

WunderPhotos

WunderBlog® & News

Nearby

Air Quality

  Air Quality AQ Index Pollutant
Not available.

Snow Depth

Station Depth Elevation

Earthquake Activity

City Distance Mag. Time & Date
Minimum magnitude displayed is 2.5.

Coastal Water Temperatures

Place Temperature

Stations

Nearby Weather Stations

Station Location Temp. Windchill Dew Point Humidity Wind Precip. Elev Updated Type
                   

Watches & Warnings

Wind Advisory
Issued: 2:09 AM PDT Apr. 25, 2017 – National Weather Service

... Wind Advisory remains in effect until 5 am PDT early this
morning...

* winds... west 25 to 35 mph with gusts up to 55 mph.

* Timing... through 5 am PDT Tuesday.

* Impacts... strong winds may blow down limbs, trees, and power
lines. Scattered power outages are expected.

Precautionary/preparedness actions...

A Wind Advisory means that winds of 35 mph are expected. Winds
this strong can make driving difficult, especially for high
profile vehicles. Use extra caution.



Mv